M V Legend II — HP5804 — position and weather

sailwx.info

Track history (hours):
 
Tides and Currents Weather Stations Pressure Air Temp Water Temp Dewpoint Dewpoint Depression Visibility Wind Speed Wind Dir Waves Ship Positions

M V Legend II

Last reported at 2017-Dec-16 09:12 UTC. Time now 2017-Dec-18 20:06 UTC.
Position N 25°34' W 079°37'.

Length 49 m.

MMSI: 370375000.

Date/timePositionNaut miles runAvg speedWind from/ knotsBaromVisibWave heightAir tempDewpointWater temp
2017-Dec-16 09:12N 25°34' W 079°37'2 8.2
2017-Dec-16 09:00N 25°35' W 079°39'4 8.1
2017-Dec-16 08:30N 25°37' W 079°43'4 7.8
2017-Dec-16 08:00N 25°38' W 079°47'4 7.5
2017-Dec-16 07:30N 25°40' W 079°51'4 7.4
2017-Dec-16 07:00N 25°41' W 079°54'4 7.6
2017-Dec-16 06:30N 25°43' W 079°58'4 8.1
2017-Dec-16 06:00N 25°45' W 080°02'4 8.3
2017-Dec-16 05:31N 25°45' W 080°07'4 8.1
2017-Dec-16 05:00N 25°46' W 080°11'2 3.7
2017-Dec-16 04:30N 25°47' W 080°13'2 3.4
2017-Dec-16 04:00N 25°48' W 080°15'0 0.2
2017-Dec-16 03:30N 25°48' W 080°15'0 0.0
2017-Dec-16 03:00N 25°48' W 080°15'0 0.0
2017-Dec-16 02:30N 25°48' W 080°15'0 0.0
2017-Dec-16 02:00N 25°48' W 080°15'0 0.0
2017-Dec-16 01:30N 25°48' W 080°15'0 0.0
2017-Dec-16 01:00N 25°48' W 080°15'0 0.0
2017-Dec-16 00:30N 25°48' W 080°15'0 0.0
2017-Dec-16 00:00N 25°48' W 080°15'0 0.0
2017-Dec-15 23:30N 25°48' W 080°15'0 0.0
2017-Dec-15 23:00N 25°48' W 080°15'0 0.0
2017-Dec-15 22:30N 25°48' W 080°15'0 0.0
2017-Dec-15 22:00N 25°48' W 080°15'0 0.0
2017-Dec-15 21:30N 25°48' W 080°15'0 0.0
2017-Dec-15 21:00N 25°48' W 080°15'0 0.0
2017-Dec-15 20:30N 25°48' W 080°15'0 0.0
2017-Dec-15 20:00N 25°48' W 080°15'0 0.0
2017-Dec-15 19:30N 25°48' W 080°15'0 0.0
2017-Dec-15 19:00N 25°48' W 080°15'0 0.0
2017-Dec-15 18:30N 25°48' W 080°15'0 0.0
2017-Dec-15 18:00N 25°48' W 080°15'0 0.0
2017-Dec-15 17:30N 25°48' W 080°15'0 0.0
2017-Dec-15 17:00N 25°48' W 080°15'0 0.0
2017-Dec-15 16:30N 25°48' W 080°15'0 0.0
2017-Dec-15 16:00N 25°48' W 080°15'0 0.0
2017-Dec-15 15:30N 25°48' W 080°15'0 0.0
2017-Dec-15 15:00N 25°48' W 080°15'0 0.0
2017-Dec-15 14:30N 25°48' W 080°15'0 0.0
2017-Dec-15 14:00N 25°48' W 080°15'0 0.0
2017-Dec-15 13:30N 25°48' W 080°15'0 0.0
2017-Dec-15 13:00N 25°48' W 080°15'0 0.0
2017-Dec-15 12:30N 25°48' W 080°15'0 0.0
2017-Dec-15 12:00N 25°48' W 080°15'0 0.0
2017-Dec-15 11:30N 25°48' W 080°15'0 0.0
2017-Dec-15 11:00N 25°48' W 080°15'0 0.0
2017-Dec-15 10:30N 25°48' W 080°15'0 0.0
2017-Dec-15 10:00N 25°48' W 080°15'0 0.0
2017-Dec-15 09:30N 25°48' W 080°15'0 0.0
2017-Dec-15 09:00N 25°48' W 080°15'0 0.0
2017-Dec-15 08:30N 25°48' W 080°15'0 0.0
2017-Dec-15 08:00N 25°48' W 080°15'0 0.0
2017-Dec-15 07:30N 25°48' W 080°15'0 0.0
2017-Dec-15 07:00N 25°48' W 080°15'0 0.0
2017-Dec-15 06:30N 25°48' W 080°15'0 0.0
2017-Dec-15 06:00N 25°48' W 080°15'0 0.0
2017-Dec-15 05:30N 25°48' W 080°15'0 0.0
2017-Dec-15 05:00N 25°48' W 080°15'0 0.0
2017-Dec-15 04:30N 25°48' W 080°15'0 0.0
2017-Dec-15 04:00N 25°48' W 080°15'0 0.0
2017-Dec-15 02:30N 25°48' W 080°15'0 0.0
2017-Dec-15 01:00N 25°48' W 080°15'0 0.0
2017-Dec-15 00:30N 25°48' W 080°15'39 2.6
2017-Dec-14 09:41N 25°38' W 079°33'2 7.6
2017-Dec-14 09:29N 25°38' W 079°34'4 7.5
2017-Dec-14 09:00N 25°39' W 079°38'4 8.0
2017-Dec-14 08:29N 25°40' W 079°43'4 8.1
2017-Dec-14 08:00N 25°41' W 079°47'4 8.0
2017-Dec-14 07:30N 25°42' W 079°51'4 7.8
2017-Dec-14 07:00N 25°43' W 079°55'4 8.4
2017-Dec-14 06:30N 25°45' W 079°60'4 8.5
2017-Dec-14 06:00N 25°46' W 080°04'5 9.3
2017-Dec-14 05:30N 25°46' W 080°09'1 3.0
2017-Dec-14 05:00N 25°46' W 080°11'2 3.3
2017-Dec-14 04:30N 25°47' W 080°13'2 3.6
2017-Dec-14 04:00N 25°48' W 080°15'0 0.6
2017-Dec-14 03:30N 25°48' W 080°15'0 0.0
2017-Dec-14 03:00N 25°48' W 080°15'0 0.0
2017-Dec-14 02:30N 25°48' W 080°15'0 0.0
2017-Dec-14 02:00N 25°48' W 080°15'0 0.0
2017-Dec-14 01:30N 25°48' W 080°15'0 0.0
2017-Dec-14 01:00N 25°48' W 080°15'0 0.0
2017-Dec-14 00:30N 25°48' W 080°15'0 0.0
2017-Dec-14 00:00N 25°48' W 080°15'0 0.0
2017-Dec-13 23:30N 25°48' W 080°15'0 0.0
2017-Dec-13 23:00N 25°48' W 080°15'0 0.0
2017-Dec-13 22:30N 25°48' W 080°15'0 0.0
2017-Dec-13 22:00N 25°48' W 080°15'0 0.0
2017-Dec-13 21:30N 25°48' W 080°15'0 0.0
2017-Dec-13 21:00N 25°48' W 080°15'0 0.0
2017-Dec-13 20:30N 25°48' W 080°15'0 0.0
2017-Dec-13 20:00N 25°48' W 080°15'0 0.0
2017-Dec-13 19:30N 25°48' W 080°15'0 0.0
2017-Dec-13 19:00N 25°48' W 080°15'0 0.0
2017-Dec-13 18:30N 25°48' W 080°15'0 0.0
2017-Dec-13 18:00N 25°48' W 080°15'0 0.0
2017-Dec-13 17:30N 25°48' W 080°15'0 0.0
2017-Dec-13 17:00N 25°48' W 080°15'0 0.0
2017-Dec-13 16:30N 25°48' W 080°15'0 0.0
2017-Dec-13 16:00N 25°48' W 080°15'0 0.0
2017-Dec-13 15:30N 25°48' W 080°15'0 0.0
2017-Dec-13 15:00N 25°48' W 080°15'0 0.0
2017-Dec-13 14:30N 25°48' W 080°15'0 0.0
2017-Dec-13 14:00N 25°48' W 080°15'0 0.0
2017-Dec-13 13:30N 25°48' W 080°15'0 0.0
2017-Dec-13 13:00N 25°48' W 080°15'0 0.0
2017-Dec-13 12:30N 25°48' W 080°15'0 0.0
2017-Dec-13 12:00N 25°48' W 080°15'0 0.0
2017-Dec-13 11:30N 25°48' W 080°15'0 0.0
2017-Dec-13 11:00N 25°48' W 080°15'0 0.0
2017-Dec-13 10:30N 25°48' W 080°15'0 0.0
2017-Dec-13 10:00N 25°48' W 080°15'0 0.0
2017-Dec-13 09:30N 25°48' W 080°15'0 0.0
2017-Dec-13 09:00N 25°48' W 080°15'0 0.0
2017-Dec-13 08:30N 25°48' W 080°15'0 0.0
2017-Dec-13 08:00N 25°48' W 080°15'0 0.0
2017-Dec-13 07:30N 25°48' W 080°15'0 0.0
2017-Dec-13 07:00N 25°48' W 080°15'0 0.0
2017-Dec-13 06:30N 25°48' W 080°15'0 0.0
2017-Dec-13 06:00N 25°48' W 080°15'0 0.0
2017-Dec-13 05:30N 25°48' W 080°15'0 0.0
2017-Dec-13 05:00N 25°48' W 080°15'0 0.0
2017-Dec-13 04:30N 25°48' W 080°15'0 0.0
2017-Dec-13 04:00N 25°48' W 080°15'0 0.0
2017-Dec-13 03:30N 25°48' W 080°15'0 0.0
2017-Dec-13 03:00N 25°48' W 080°15'0 0.0
2017-Dec-13 02:30N 25°48' W 080°15'0 0.0
2017-Dec-13 02:00N 25°48' W 080°15'0 0.0
2017-Dec-13 01:30N 25°48' W 080°15'0 0.0
2017-Dec-13 01:00N 25°48' W 080°15'0 0.0
2017-Dec-13 00:30N 25°48' W 080°15'0 0.0
2017-Dec-13 00:00N 25°48' W 080°15'0 0.0
2017-Dec-12 23:30N 25°48' W 080°15'0 0.0
2017-Dec-12 23:00N 25°48' W 080°15'0 0.0
2017-Dec-12 22:30N 25°48' W 080°15'0 0.0
2017-Dec-12 22:00N 25°48' W 080°15'1 1.1
2017-Dec-12 21:31N 25°48' W 080°14'2 3.1
2017-Dec-12 21:00N 25°47' W 080°13'1 2.6
2017-Dec-12 20:31N 25°46' W 080°12'1 2.3
2017-Dec-12 20:00N 25°46' W 080°10'510.5
2017-Dec-12 19:30N 25°46' W 080°05'510.2
2017-Dec-12 19:00N 25°47' W 079°59'510.0
2017-Dec-12 18:30N 25°48' W 079°54'510.1
2017-Dec-12 18:00N 25°48' W 079°48'510.0
2017-Dec-12 17:30N 25°48' W 079°42'710.0
2017-Dec-12 16:46N 25°49' W 079°34'310.2
2017-Dec-12 16:30N 25°49' W 079°31'  
2017-Dec-09 10:02N 25°37' W 079°30'3 6.3
2017-Dec-09 09:31N 25°38' W 079°34'1 6.3
2017-Dec-09 09:25N 25°38' W 079°34'2 6.1
2017-Dec-09 09:00N 25°39' W 079°37'3 6.2
2017-Dec-09 08:30N 25°40' W 079°40'3 6.3
2017-Dec-09 08:00N 25°41' W 079°44'3 6.5
2017-Dec-09 07:30N 25°42' W 079°47'3 6.5
2017-Dec-09 07:00N 25°42' W 079°51'3 6.7
2017-Dec-09 06:30N 25°43' W 079°54'4 7.0
2017-Dec-09 06:00N 25°44' W 079°58'4 7.3
2017-Dec-09 05:30N 25°45' W 080°02'4 7.7
2017-Dec-09 05:00N 25°46' W 080°06'4 8.2
2017-Dec-09 04:30N 25°46' W 080°11'1 2.6
2017-Dec-09 04:00N 25°46' W 080°12'2 3.1
2017-Dec-09 03:30N 25°47' W 080°14'1 2.6
2017-Dec-09 03:00N 25°48' W 080°15'0 0.0
2017-Dec-09 02:30N 25°48' W 080°15'0 0.0
2017-Dec-09 02:00N 25°48' W 080°15'0 0.0
2017-Dec-09 01:30N 25°48' W 080°15'0 0.0
2017-Dec-09 01:00N 25°48' W 080°15'0 0.0
2017-Dec-09 00:30N 25°48' W 080°15'0 0.0
2017-Dec-09 00:00N 25°48' W 080°15'0 0.0
2017-Dec-08 23:30N 25°48' W 080°15'0 0.0
2017-Dec-08 23:00N 25°48' W 080°15'0 0.0
2017-Dec-08 22:30N 25°48' W 080°15'0 0.0
2017-Dec-08 22:00N 25°48' W 080°15'0 0.0
2017-Dec-08 21:30N 25°48' W 080°15'0 0.0
2017-Dec-08 21:00N 25°48' W 080°15'0 0.0
2017-Dec-08 20:30N 25°48' W 080°15'0 0.0
2017-Dec-08 20:00N 25°48' W 080°15'0 0.0
2017-Dec-08 19:30N 25°48' W 080°15'0 0.0
2017-Dec-08 19:00N 25°48' W 080°15'0 0.0
2017-Dec-08 18:30N 25°48' W 080°15'0 0.0
2017-Dec-08 18:00N 25°48' W 080°15'0 0.0
2017-Dec-08 17:30N 25°48' W 080°15'0 0.0
2017-Dec-08 17:00N 25°48' W 080°15'0 0.0
2017-Dec-08 16:30N 25°48' W 080°15'0 0.0
2017-Dec-08 16:00N 25°48' W 080°15'0 0.0
2017-Dec-08 15:30N 25°48' W 080°15'0 0.0
2017-Dec-08 15:00N 25°48' W 080°15'0 0.0
2017-Dec-08 14:30N 25°48' W 080°15'0 0.0
2017-Dec-08 14:00N 25°48' W 080°15'0 0.0
2017-Dec-08 13:30N 25°48' W 080°15'0 0.0
2017-Dec-08 13:00N 25°48' W 080°15'0 0.0
2017-Dec-08 12:30N 25°48' W 080°15'0 0.0
2017-Dec-08 12:00N 25°48' W 080°15'0 0.0
2017-Dec-08 11:30N 25°48' W 080°15'0 0.0
2017-Dec-08 11:00N 25°48' W 080°15'0 0.0
2017-Dec-08 10:30N 25°48' W 080°15'0 0.0
2017-Dec-08 10:00N 25°48' W 080°15'0 0.0
2017-Dec-08 09:30N 25°48' W 080°15'0 0.0
2017-Dec-08 09:00N 25°48' W 080°15'0 0.0
2017-Dec-08 08:30N 25°48' W 080°15'0 0.0
2017-Dec-08 08:00N 25°48' W 080°15'0 0.0
2017-Dec-08 07:30N 25°48' W 080°15'0 0.0
2017-Dec-08 07:00N 25°48' W 080°15'0 0.0
2017-Dec-08 06:30N 25°48' W 080°15'0 0.0
2017-Dec-08 06:00N 25°48' W 080°15'0 0.0
2017-Dec-08 05:30N 25°48' W 080°15'0 0.0
2017-Dec-08 05:00N 25°48' W 080°15'0 0.0
2017-Dec-08 04:30N 25°48' W 080°15'0 0.0
2017-Dec-08 04:00N 25°48' W 080°15'0 0.0
2017-Dec-08 03:30N 25°48' W 080°15'0 0.0
2017-Dec-08 03:00N 25°48' W 080°15'0 0.0
2017-Dec-08 02:30N 25°48' W 080°15'0 0.0
2017-Dec-08 02:00N 25°48' W 080°15'0 0.0
2017-Dec-08 01:30N 25°48' W 080°15'0 0.0
2017-Dec-08 01:00N 25°48' W 080°15'0 0.0
2017-Dec-08 00:30N 25°48' W 080°15'0 0.0
2017-Dec-08 00:00N 25°48' W 080°15'0 0.0
2017-Dec-07 23:30N 25°48' W 080°15'0 0.0
2017-Dec-07 23:00N 25°48' W 080°15'0 0.0
2017-Dec-07 22:30N 25°48' W 080°15'0 0.0
2017-Dec-07 22:00N 25°48' W 080°15'0 0.0
2017-Dec-07 21:30N 25°48' W 080°15'0 0.0
2017-Dec-07 21:00N 25°48' W 080°15'0 0.0
2017-Dec-07 20:30N 25°48' W 080°15'0 0.0
2017-Dec-07 20:00N 25°48' W 080°15'0 0.0
2017-Dec-07 19:30N 25°48' W 080°15'0 0.0
2017-Dec-07 19:00N 25°48' W 080°15'0 0.0
2017-Dec-07 18:30N 25°48' W 080°15'0 0.0
2017-Dec-07 18:00N 25°48' W 080°15'0 0.0
2017-Dec-07 17:30N 25°48' W 080°15'0 0.0
2017-Dec-07 17:00N 25°48' W 080°15'0 0.0
2017-Dec-07 16:30N 25°48' W 080°15'0 0.0
2017-Dec-07 16:00N 25°48' W 080°15'0 0.0
2017-Dec-07 15:30N 25°48' W 080°15'0 0.0
2017-Dec-07 15:00N 25°48' W 080°15'0 0.0
2017-Dec-07 14:30N 25°48' W 080°15'0 0.0
2017-Dec-07 14:00N 25°48' W 080°15'0 0.0
2017-Dec-07 13:30N 25°48' W 080°15'0 0.0
2017-Dec-07 13:00N 25°48' W 080°15'0 0.0
2017-Dec-07 12:30N 25°48' W 080°15'0 0.0
2017-Dec-07 12:00N 25°48' W 080°15'0 0.0
2017-Dec-07 11:30N 25°48' W 080°15'0 0.0
2017-Dec-07 11:00N 25°48' W 080°15'0 0.0
2017-Dec-07 10:30N 25°48' W 080°15'0 0.0
2017-Dec-07 10:00N 25°48' W 080°15'0 0.0
2017-Dec-07 09:30N 25°48' W 080°15'0 0.0
2017-Dec-07 09:00N 25°48' W 080°15'0 0.0
2017-Dec-07 08:30N 25°48' W 080°15'0 0.0
2017-Dec-07 08:00N 25°48' W 080°15'0 0.0
2017-Dec-07 07:30N 25°48' W 080°15'0 0.0
2017-Dec-07 07:00N 25°48' W 080°15'0 0.0
2017-Dec-07 06:30N 25°48' W 080°15'0 0.0
2017-Dec-07 06:00N 25°48' W 080°15'0 0.0
2017-Dec-07 05:30N 25°48' W 080°15'0 0.0
2017-Dec-07 05:00N 25°48' W 080°15'0 0.0
2017-Dec-07 04:30N 25°48' W 080°15'0 0.0
2017-Dec-07 04:00N 25°48' W 080°15'0 0.0
2017-Dec-07 03:31N 25°48' W 080°15'0 0.0
2017-Dec-07 03:00N 25°48' W 080°15'0 0.0
2017-Dec-07 02:30N 25°48' W 080°15'0 0.0
2017-Dec-07 02:00N 25°48' W 080°15'0 0.0
2017-Dec-07 01:30N 25°48' W 080°15'0 0.0
2017-Dec-07 01:00N 25°48' W 080°15'0 0.0
2017-Dec-07 00:30N 25°48' W 080°15'0 0.0
2017-Dec-07 00:00N 25°48' W 080°15'0 0.0
2017-Dec-06 23:30N 25°48' W 080°15'0 0.0
2017-Dec-06 23:00N 25°48' W 080°15'0 0.0
2017-Dec-06 22:30N 25°48' W 080°15'0 0.0
2017-Dec-06 22:00N 25°48' W 080°15'0 0.0
2017-Dec-06 21:30N 25°48' W 080°15'0 0.0
2017-Dec-06 21:00N 25°48' W 080°15'  
Track history (hours):
 
Tides and Currents Weather Stations Pressure Air Temp Water Temp Dewpoint Dewpoint Depression Visibility Wind Speed Wind Dir Waves Ship Positions

M V Legend II

Last reported at 2017-Dec-16 09:12 UTC. Time now 2017-Dec-18 20:06 UTC.
Position N 25°34' W 079°37'.

Length 49 m.

MMSI: 370375000.

Date/timePositionNaut miles runAvg speedWind from/ knotsBaromVisibWave heightAir tempDewpointWater temp
2017-Dec-16 09:12N 25°34' W 079°37'2 8.2
2017-Dec-16 09:00N 25°35' W 079°39'4 8.1
2017-Dec-16 08:30N 25°37' W 079°43'4 7.8
2017-Dec-16 08:00N 25°38' W 079°47'4 7.5
2017-Dec-16 07:30N 25°40' W 079°51'4 7.4
2017-Dec-16 07:00N 25°41' W 079°54'4 7.6
2017-Dec-16 06:30N 25°43' W 079°58'4 8.1
2017-Dec-16 06:00N 25°45' W 080°02'4 8.3
2017-Dec-16 05:31N 25°45' W 080°07'4 8.1
2017-Dec-16 05:00N 25°46' W 080°11'2 3.7
2017-Dec-16 04:30N 25°47' W 080°13'2 3.4
2017-Dec-16 04:00N 25°48' W 080°15'0 0.2
2017-Dec-16 03:30N 25°48' W 080°15'0 0.0
2017-Dec-16 03:00N 25°48' W 080°15'0 0.0
2017-Dec-16 02:30N 25°48' W 080°15'0 0.0
2017-Dec-16 02:00N 25°48' W 080°15'0 0.0
2017-Dec-16 01:30N 25°48' W 080°15'0 0.0
2017-Dec-16 01:00N 25°48' W 080°15'0 0.0
2017-Dec-16 00:30N 25°48' W 080°15'0 0.0
2017-Dec-16 00:00N 25°48' W 080°15'0 0.0
2017-Dec-15 23:30N 25°48' W 080°15'0 0.0
2017-Dec-15 23:00N 25°48' W 080°15'0 0.0
2017-Dec-15 22:30N 25°48' W 080°15'0 0.0
2017-Dec-15 22:00N 25°48' W 080°15'0 0.0
2017-Dec-15 21:30N 25°48' W 080°15'0 0.0
2017-Dec-15 21:00N 25°48' W 080°15'0 0.0
2017-Dec-15 20:30N 25°48' W 080°15'0 0.0
2017-Dec-15 20:00N 25°48' W 080°15'0 0.0
2017-Dec-15 19:30N 25°48' W 080°15'0 0.0
2017-Dec-15 19:00N 25°48' W 080°15'0 0.0
2017-Dec-15 18:30N 25°48' W 080°15'0 0.0
2017-Dec-15 18:00N 25°48' W 080°15'0 0.0
2017-Dec-15 17:30N 25°48' W 080°15'0 0.0
2017-Dec-15 17:00N 25°48' W 080°15'0 0.0
2017-Dec-15 16:30N 25°48' W 080°15'0 0.0
2017-Dec-15 16:00N 25°48' W 080°15'0 0.0
2017-Dec-15 15:30N 25°48' W 080°15'0 0.0
2017-Dec-15 15:00N 25°48' W 080°15'0 0.0
2017-Dec-15 14:30N 25°48' W 080°15'0 0.0
2017-Dec-15 14:00N 25°48' W 080°15'0 0.0
2017-Dec-15 13:30N 25°48' W 080°15'0 0.0
2017-Dec-15 13:00N 25°48' W 080°15'0 0.0
2017-Dec-15 12:30N 25°48' W 080°15'0 0.0
2017-Dec-15 12:00N 25°48' W 080°15'0 0.0
2017-Dec-15 11:30N 25°48' W 080°15'0 0.0
2017-Dec-15 11:00N 25°48' W 080°15'0 0.0
2017-Dec-15 10:30N 25°48' W 080°15'0 0.0
2017-Dec-15 10:00N 25°48' W 080°15'0 0.0
2017-Dec-15 09:30N 25°48' W 080°15'0 0.0
2017-Dec-15 09:00N 25°48' W 080°15'0 0.0
2017-Dec-15 08:30N 25°48' W 080°15'0 0.0
2017-Dec-15 08:00N 25°48' W 080°15'0 0.0
2017-Dec-15 07:30N 25°48' W 080°15'0 0.0
2017-Dec-15 07:00N 25°48' W 080°15'0 0.0
2017-Dec-15 06:30N 25°48' W 080°15'0 0.0
2017-Dec-15 06:00N 25°48' W 080°15'0 0.0
2017-Dec-15 05:30N 25°48' W 080°15'0 0.0
2017-Dec-15 05:00N 25°48' W 080°15'0 0.0
2017-Dec-15 04:30N 25°48' W 080°15'0 0.0
2017-Dec-15 04:00N 25°48' W 080°15'0 0.0
2017-Dec-15 02:30N 25°48' W 080°15'0 0.0
2017-Dec-15 01:00N 25°48' W 080°15'0 0.0
2017-Dec-15 00:30N 25°48' W 080°15'39 2.6
2017-Dec-14 09:41N 25°38' W 079°33'2 7.6
2017-Dec-14 09:29N 25°38' W 079°34'4 7.5
2017-Dec-14 09:00N 25°39' W 079°38'4 8.0
2017-Dec-14 08:29N 25°40' W 079°43'4 8.1
2017-Dec-14 08:00N 25°41' W 079°47'4 8.0
2017-Dec-14 07:30N 25°42' W 079°51'4 7.8
2017-Dec-14 07:00N 25°43' W 079°55'4 8.4
2017-Dec-14 06:30N 25°45' W 079°60'4 8.5
2017-Dec-14 06:00N 25°46' W 080°04'5 9.3
2017-Dec-14 05:30N 25°46' W 080°09'1 3.0
2017-Dec-14 05:00N 25°46' W 080°11'2 3.3
2017-Dec-14 04:30N 25°47' W 080°13'2 3.6
2017-Dec-14 04:00N 25°48' W 080°15'0 0.6
2017-Dec-14 03:30N 25°48' W 080°15'0 0.0
2017-Dec-14 03:00N 25°48' W 080°15'0 0.0
2017-Dec-14 02:30N 25°48' W 080°15'0 0.0
2017-Dec-14 02:00N 25°48' W 080°15'0 0.0
2017-Dec-14 01:30N 25°48' W 080°15'0 0.0
2017-Dec-14 01:00N 25°48' W 080°15'0 0.0
2017-Dec-14 00:30N 25°48' W 080°15'0 0.0
2017-Dec-14 00:00N 25°48' W 080°15'0 0.0
2017-Dec-13 23:30N 25°48' W 080°15'0 0.0
2017-Dec-13 23:00N 25°48' W 080°15'0 0.0
2017-Dec-13 22:30N 25°48' W 080°15'0 0.0
2017-Dec-13 22:00N 25°48' W 080°15'0 0.0
2017-Dec-13 21:30N 25°48' W 080°15'0 0.0
2017-Dec-13 21:00N 25°48' W 080°15'0 0.0
2017-Dec-13 20:30N 25°48' W 080°15'0 0.0
2017-Dec-13 20:00N 25°48' W 080°15'0 0.0
2017-Dec-13 19:30N 25°48' W 080°15'0 0.0
2017-Dec-13 19:00N 25°48' W 080°15'0 0.0
2017-Dec-13 18:30N 25°48' W 080°15'0 0.0
2017-Dec-13 18:00N 25°48' W 080°15'0 0.0
2017-Dec-13 17:30N 25°48' W 080°15'0 0.0
2017-Dec-13 17:00N 25°48' W 080°15'0 0.0
2017-Dec-13 16:30N 25°48' W 080°15'0 0.0
2017-Dec-13 16:00N 25°48' W 080°15'0 0.0
2017-Dec-13 15:30N 25°48' W 080°15'0 0.0
2017-Dec-13 15:00N 25°48' W 080°15'0 0.0
2017-Dec-13 14:30N 25°48' W 080°15'0 0.0
2017-Dec-13 14:00N 25°48' W 080°15'0 0.0
2017-Dec-13 13:30N 25°48' W 080°15'0 0.0
2017-Dec-13 13:00N 25°48' W 080°15'0 0.0
2017-Dec-13 12:30N 25°48' W 080°15'0 0.0
2017-Dec-13 12:00N 25°48' W 080°15'0 0.0
2017-Dec-13 11:30N 25°48' W 080°15'0 0.0
2017-Dec-13 11:00N 25°48' W 080°15'0 0.0
2017-Dec-13 10:30N 25°48' W 080°15'0 0.0
2017-Dec-13 10:00N 25°48' W 080°15'0 0.0
2017-Dec-13 09:30N 25°48' W 080°15'0 0.0
2017-Dec-13 09:00N 25°48' W 080°15'0 0.0
2017-Dec-13 08:30N 25°48' W 080°15'0 0.0
2017-Dec-13 08:00N 25°48' W 080°15'0 0.0
2017-Dec-13 07:30N 25°48' W 080°15'0 0.0
2017-Dec-13 07:00N 25°48' W 080°15'0 0.0
2017-Dec-13 06:30N 25°48' W 080°15'0 0.0
2017-Dec-13 06:00N 25°48' W 080°15'0 0.0
2017-Dec-13 05:30N 25°48' W 080°15'0 0.0
2017-Dec-13 05:00N 25°48' W 080°15'0 0.0
2017-Dec-13 04:30N 25°48' W 080°15'0 0.0
2017-Dec-13 04:00N 25°48' W 080°15'0 0.0
2017-Dec-13 03:30N 25°48' W 080°15'0 0.0
2017-Dec-13 03:00N 25°48' W 080°15'0 0.0
2017-Dec-13 02:30N 25°48' W 080°15'0 0.0
2017-Dec-13 02:00N 25°48' W 080°15'0 0.0
2017-Dec-13 01:30N 25°48' W 080°15'0 0.0
2017-Dec-13 01:00N 25°48' W 080°15'0 0.0
2017-Dec-13 00:30N 25°48' W 080°15'0 0.0
2017-Dec-13 00:00N 25°48' W 080°15'0 0.0
2017-Dec-12 23:30N 25°48' W 080°15'0 0.0
2017-Dec-12 23:00N 25°48' W 080°15'0 0.0
2017-Dec-12 22:30N 25°48' W 080°15'0 0.0
2017-Dec-12 22:00N 25°48' W 080°15'1 1.1
2017-Dec-12 21:31N 25°48' W 080°14'2 3.1
2017-Dec-12 21:00N 25°47' W 080°13'1 2.6
2017-Dec-12 20:31N 25°46' W 080°12'1 2.3
2017-Dec-12 20:00N 25°46' W 080°10'510.5
2017-Dec-12 19:30N 25°46' W 080°05'510.2
2017-Dec-12 19:00N 25°47' W 079°59'510.0
2017-Dec-12 18:30N 25°48' W 079°54'510.1
2017-Dec-12 18:00N 25°48' W 079°48'510.0
2017-Dec-12 17:30N 25°48' W 079°42'710.0
2017-Dec-12 16:46N 25°49' W 079°34'310.2
2017-Dec-12 16:30N 25°49' W 079°31'  
2017-Dec-09 10:02N 25°37' W 079°30'3 6.3
2017-Dec-09 09:31N 25°38' W 079°34'1 6.3
2017-Dec-09 09:25N 25°38' W 079°34'2 6.1
2017-Dec-09 09:00N 25°39' W 079°37'3 6.2
2017-Dec-09 08:30N 25°40' W 079°40'3 6.3
2017-Dec-09 08:00N 25°41' W 079°44'3 6.5
2017-Dec-09 07:30N 25°42' W 079°47'3 6.5
2017-Dec-09 07:00N 25°42' W 079°51'3 6.7
2017-Dec-09 06:30N 25°43' W 079°54'4 7.0
2017-Dec-09 06:00N 25°44' W 079°58'4 7.3
2017-Dec-09 05:30N 25°45' W 080°02'4 7.7
2017-Dec-09 05:00N 25°46' W 080°06'4 8.2
2017-Dec-09 04:30N 25°46' W 080°11'1 2.6
2017-Dec-09 04:00N 25°46' W 080°12'2 3.1
2017-Dec-09 03:30N 25°47' W 080°14'1 2.6
2017-Dec-09 03:00N 25°48' W 080°15'0 0.0
2017-Dec-09 02:30N 25°48' W 080°15'0 0.0
2017-Dec-09 02:00N 25°48' W 080°15'0 0.0
2017-Dec-09 01:30N 25°48' W 080°15'0 0.0
2017-Dec-09 01:00N 25°48' W 080°15'0 0.0
2017-Dec-09 00:30N 25°48' W 080°15'0 0.0
2017-Dec-09 00:00N 25°48' W 080°15'0 0.0
2017-Dec-08 23:30N 25°48' W 080°15'0 0.0
2017-Dec-08 23:00N 25°48' W 080°15'0 0.0
2017-Dec-08 22:30N 25°48' W 080°15'0 0.0
2017-Dec-08 22:00N 25°48' W 080°15'0 0.0
2017-Dec-08 21:30N 25°48' W 080°15'0 0.0
2017-Dec-08 21:00N 25°48' W 080°15'0 0.0
2017-Dec-08 20:30N 25°48' W 080°15'0 0.0
2017-Dec-08 20:00N 25°48' W 080°15'0 0.0
2017-Dec-08 19:30N 25°48' W 080°15'0 0.0
2017-Dec-08 19:00N 25°48' W 080°15'0 0.0
2017-Dec-08 18:30N 25°48' W 080°15'0 0.0
2017-Dec-08 18:00N 25°48' W 080°15'0 0.0
2017-Dec-08 17:30N 25°48' W 080°15'0 0.0
2017-Dec-08 17:00N 25°48' W 080°15'0 0.0
2017-Dec-08 16:30N 25°48' W 080°15'0 0.0
2017-Dec-08 16:00N 25°48' W 080°15'0 0.0
2017-Dec-08 15:30N 25°48' W 080°15'0 0.0
2017-Dec-08 15:00N 25°48' W 080°15'0 0.0
2017-Dec-08 14:30N 25°48' W 080°15'0 0.0
2017-Dec-08 14:00N 25°48' W 080°15'0 0.0
2017-Dec-08 13:30N 25°48' W 080°15'0 0.0
2017-Dec-08 13:00N 25°48' W 080°15'0 0.0
2017-Dec-08 12:30N 25°48' W 080°15'0 0.0
2017-Dec-08 12:00N 25°48' W 080°15'0 0.0
2017-Dec-08 11:30N 25°48' W 080°15'0 0.0
2017-Dec-08 11:00N 25°48' W 080°15'0 0.0
2017-Dec-08 10:30N 25°48' W 080°15'0 0.0
2017-Dec-08 10:00N 25°48' W 080°15'0 0.0
2017-Dec-08 09:30N 25°48' W 080°15'0 0.0
2017-Dec-08 09:00N 25°48' W 080°15'0 0.0
2017-Dec-08 08:30N 25°48' W 080°15'0 0.0
2017-Dec-08 08:00N 25°48' W 080°15'0 0.0
2017-Dec-08 07:30N 25°48' W 080°15'0 0.0
2017-Dec-08 07:00N 25°48' W 080°15'0 0.0
2017-Dec-08 06:30N 25°48' W 080°15'0 0.0
2017-Dec-08 06:00N 25°48' W 080°15'0 0.0
2017-Dec-08 05:30N 25°48' W 080°15'0 0.0
2017-Dec-08 05:00N 25°48' W 080°15'0 0.0
2017-Dec-08 04:30N 25°48' W 080°15'0 0.0
2017-Dec-08 04:00N 25°48' W 080°15'0 0.0
2017-Dec-08 03:30N 25°48' W 080°15'0 0.0
2017-Dec-08 03:00N 25°48' W 080°15'0 0.0
2017-Dec-08 02:30N 25°48' W 080°15'0 0.0
2017-Dec-08 02:00N 25°48' W 080°15'0 0.0
2017-Dec-08 01:30N 25°48' W 080°15'0 0.0
2017-Dec-08 01:00N 25°48' W 080°15'0 0.0
2017-Dec-08 00:30N 25°48' W 080°15'0 0.0
2017-Dec-08 00:00N 25°48' W 080°15'0 0.0
2017-Dec-07 23:30N 25°48' W 080°15'0 0.0
2017-Dec-07 23:00N 25°48' W 080°15'0 0.0
2017-Dec-07 22:30N 25°48' W 080°15'0 0.0
2017-Dec-07 22:00N 25°48' W 080°15'0 0.0
2017-Dec-07 21:30N 25°48' W 080°15'0 0.0
2017-Dec-07 21:00N 25°48' W 080°15'0 0.0
2017-Dec-07 20:30N 25°48' W 080°15'0 0.0
2017-Dec-07 20:00N 25°48' W 080°15'0 0.0
2017-Dec-07 19:30N 25°48' W 080°15'0 0.0
2017-Dec-07 19:00N 25°48' W 080°15'0 0.0
2017-Dec-07 18:30N 25°48' W 080°15'0 0.0
2017-Dec-07 18:00N 25°48' W 080°15'0 0.0
2017-Dec-07 17:30N 25°48' W 080°15'0 0.0
2017-Dec-07 17:00N 25°48' W 080°15'0 0.0
2017-Dec-07 16:30N 25°48' W 080°15'0 0.0
2017-Dec-07 16:00N 25°48' W 080°15'0 0.0
2017-Dec-07 15:30N 25°48' W 080°15'0 0.0
2017-Dec-07 15:00N 25°48' W 080°15'0 0.0
2017-Dec-07 14:30N 25°48' W 080°15'0 0.0
2017-Dec-07 14:00N 25°48' W 080°15'0 0.0
2017-Dec-07 13:30N 25°48' W 080°15'0 0.0
2017-Dec-07 13:00N 25°48' W 080°15'0 0.0
2017-Dec-07 12:30N 25°48' W 080°15'0 0.0
2017-Dec-07 12:00N 25°48' W 080°15'0 0.0
2017-Dec-07 11:30N 25°48' W 080°15'0 0.0
2017-Dec-07 11:00N 25°48' W 080°15'0 0.0
2017-Dec-07 10:30N 25°48' W 080°15'0 0.0
2017-Dec-07 10:00N 25°48' W 080°15'0 0.0
2017-Dec-07 09:30N 25°48' W 080°15'0 0.0
2017-Dec-07 09:00N 25°48' W 080°15'0 0.0
2017-Dec-07 08:30N 25°48' W 080°15'0 0.0
2017-Dec-07 08:00N 25°48' W 080°15'0 0.0
2017-Dec-07 07:30N 25°48' W 080°15'0 0.0
2017-Dec-07 07:00N 25°48' W 080°15'0 0.0
2017-Dec-07 06:30N 25°48' W 080°15'0 0.0
2017-Dec-07 06:00N 25°48' W 080°15'0 0.0
2017-Dec-07 05:30N 25°48' W 080°15'0 0.0
2017-Dec-07 05:00N 25°48' W 080°15'0 0.0
2017-Dec-07 04:30N 25°48' W 080°15'0 0.0
2017-Dec-07 04:00N 25°48' W 080°15'0 0.0
2017-Dec-07 03:31N 25°48' W 080°15'0 0.0
2017-Dec-07 03:00N 25°48' W 080°15'0 0.0
2017-Dec-07 02:30N 25°48' W 080°15'0 0.0
2017-Dec-07 02:00N 25°48' W 080°15'0 0.0
2017-Dec-07 01:30N 25°48' W 080°15'0 0.0
2017-Dec-07 01:00N 25°48' W 080°15'0 0.0
2017-Dec-07 00:30N 25°48' W 080°15'0 0.0
2017-Dec-07 00:00N 25°48' W 080°15'0 0.0
2017-Dec-06 23:30N 25°48' W 080°15'0 0.0
2017-Dec-06 23:00N 25°48' W 080°15'0 0.0
2017-Dec-06 22:30N 25°48' W 080°15'0 0.0
2017-Dec-06 22:00N 25°48' W 080°15'0 0.0
2017-Dec-06 21:30N 25°48' W 080°15'0 0.0
2017-Dec-06 21:00N 25°48' W 080°15'  

Dump ship's entire track history